Nome, North Dakota
Current Conditions -  °F | °C
As of 6:55 PM on Friday 24 Oct 2014 (Local Time) from KBAC Reporting Station
Clear Clear  
Wind Chill: 61°   Ceiling: Unl
Heat Index: 61°   Visibility: 10mi
Dew Point: 32°   Wind: 14mph
Humidity: 34%   Direction: 290°WNW
Pressure: 29.89"   Gusts: NA
Location:  46.68°N, 97.81°W
Report Text: KBAC 242355Z AUTO 29012KT 10SM CLR 16/00 A2989 RMK AO2
Loading
Personal Weather Stations






























Interactive Weather Map
Tropical Storm Tracking
New forecast layout! Learn more

10-Day Weather Forecast

Advertisements
Track Severe Weather on mobile